sensor_id;sensor_type;location;lat;lon;timestamp;P1;durP1;ratioP1;P2;durP2;ratioP2
17790;SDS011;9019;48.132;-1.210;2022-10-19T00:01:37;12.90;;;7.65;;
17790;SDS011;9019;48.132;-1.210;2022-10-19T00:04:04;11.43;;;7.60;;
17790;SDS011;9019;48.132;-1.210;2022-10-19T00:06:32;9.98;;;7.43;;
17790;SDS011;9019;48.132;-1.210;2022-10-19T00:09:00;10.75;;;7.60;;
17790;SDS011;9019;48.132;-1.210;2022-10-19T00:11:28;11.23;;;8.20;;
17790;SDS011;9019;48.132;-1.210;2022-10-19T00:13:56;11.85;;;8.07;;
17790;SDS011;9019;48.132;-1.210;2022-10-19T00:16:24;11.02;;;7.82;;
17790;SDS011;9019;48.132;-1.210;2022-10-19T00:18:53;9.65;;;7.32;;
17790;SDS011;9019;48.132;-1.210;2022-10-19T00:21:21;11.50;;;8.13;;
17790;SDS011;9019;48.132;-1.210;2022-10-19T00:23:48;12.98;;;7.93;;
17790;SDS011;9019;48.132;-1.210;2022-10-19T00:26:16;12.02;;;7.50;;
17790;SDS011;9019;48.132;-1.210;2022-10-19T00:28:43;12.88;;;7.90;;
17790;SDS011;9019;48.132;-1.210;2022-10-19T00:31:11;12.43;;;7.65;;
17790;SDS011;9019;48.132;-1.210;2022-10-19T00:33:39;12.30;;;7.95;;
17790;SDS011;9019;48.132;-1.210;2022-10-19T00:36:12;10.65;;;7.90;;
17790;SDS011;9019;48.132;-1.210;2022-10-19T00:38:40;10.40;;;7.88;;
17790;SDS011;9019;48.132;-1.210;2022-10-19T00:41:07;10.00;;;8.02;;
17790;SDS011;9019;48.132;-1.210;2022-10-19T00:43:48;11.55;;;8.50;;
17790;SDS011;9019;48.132;-1.210;2022-10-19T00:46:17;13.98;;;8.30;;
17790;SDS011;9019;48.132;-1.210;2022-10-19T00:48:44;12.52;;;8.25;;
17790;SDS011;9019;48.132;-1.210;2022-10-19T00:51:12;10.15;;;8.13;;
17790;SDS011;9019;48.132;-1.210;2022-10-19T00:53:40;10.20;;;7.65;;
17790;SDS011;9019;48.132;-1.210;2022-10-19T00:56:09;15.20;;;8.60;;
17790;SDS011;9019;48.132;-1.210;2022-10-19T00:58:38;12.52;;;7.95;;
17790;SDS011;9019;48.132;-1.210;2022-10-19T01:01:05;17.52;;;8.20;;
17790;SDS011;9019;48.132;-1.210;2022-10-19T01:03:34;9.02;;;7.40;;
17790;SDS011;9019;48.132;-1.210;2022-10-19T01:06:01;13.50;;;8.57;;
17790;SDS011;9019;48.132;-1.210;2022-10-19T01:08:30;13.77;;;7.90;;
17790;SDS011;9019;48.132;-1.210;2022-10-19T01:10:59;13.82;;;8.25;;
17790;SDS011;9019;48.132;-1.210;2022-10-19T01:13:29;12.65;;;8.07;;
17790;SDS011;9019;48.132;-1.210;2022-10-19T01:16:02;8.57;;;7.22;;
17790;SDS011;9019;48.132;-1.210;2022-10-19T01:18:33;12.35;;;7.72;;
17790;SDS011;9019;48.132;-1.210;2022-10-19T01:24:05;10.60;;;7.47;;
17790;SDS011;9019;48.132;-1.210;2022-10-19T01:26:45;11.60;;;7.35;;
17790;SDS011;9019;48.132;-1.210;2022-10-19T01:29:17;14.07;;;7.90;;
17790;SDS011;9019;48.132;-1.210;2022-10-19T01:31:51;8.60;;;6.72;;
17790;SDS011;9019;48.132;-1.210;2022-10-19T01:34:22;10.95;;;7.30;;
17790;SDS011;9019;48.132;-1.210;2022-10-19T01:36:53;12.48;;;7.35;;
17790;SDS011;9019;48.132;-1.210;2022-10-19T01:39:23;9.45;;;7.38;;
17790;SDS011;9019;48.132;-1.210;2022-10-19T01:41:54;11.20;;;6.82;;
17790;SDS011;9019;48.132;-1.210;2022-10-19T01:44:24;10.98;;;7.00;;
17790;SDS011;9019;48.132;-1.210;2022-10-19T01:46:56;8.77;;;7.13;;
17790;SDS011;9019;48.132;-1.210;2022-10-19T01:49:27;9.68;;;6.57;;
17790;SDS011;9019;48.132;-1.210;2022-10-19T01:51:56;9.60;;;7.22;;
17790;SDS011;9019;48.132;-1.210;2022-10-19T01:54:25;9.70;;;7.10;;
17790;SDS011;9019;48.132;-1.210;2022-10-19T01:56:54;9.75;;;6.75;;
17790;SDS011;9019;48.132;-1.210;2022-10-19T01:59:24;9.02;;;7.22;;
17790;SDS011;9019;48.132;-1.210;2022-10-19T02:01:52;10.15;;;7.20;;
17790;SDS011;9019;48.132;-1.210;2022-10-19T02:04:21;10.38;;;6.70;;
17790;SDS011;9019;48.132;-1.210;2022-10-19T02:06:50;11.93;;;7.18;;
17790;SDS011;9019;48.132;-1.210;2022-10-19T02:09:17;9.20;;;7.22;;
17790;SDS011;9019;48.132;-1.210;2022-10-19T02:11:45;10.95;;;7.20;;
17790;SDS011;9019;48.132;-1.210;2022-10-19T02:14:13;10.02;;;7.10;;
17790;SDS011;9019;48.132;-1.210;2022-10-19T02:16:44;7.75;;;6.65;;
17790;SDS011;9019;48.132;-1.210;2022-10-19T02:19:13;10.02;;;7.10;;
17790;SDS011;9019;48.132;-1.210;2022-10-19T02:21:42;9.43;;;7.25;;
17790;SDS011;9019;48.132;-1.210;2022-10-19T02:24:09;9.48;;;7.03;;
17790;SDS011;9019;48.132;-1.210;2022-10-19T02:26:36;11.43;;;6.97;;
17790;SDS011;9019;48.132;-1.210;2022-10-19T02:29:04;8.25;;;6.85;;
17790;SDS011;9019;48.132;-1.210;2022-10-19T02:31:31;9.27;;;6.50;;
17790;SDS011;9019;48.132;-1.210;2022-10-19T02:33:58;10.07;;;6.63;;
17790;SDS011;9019;48.132;-1.210;2022-10-19T02:36:26;10.18;;;7.03;;
17790;SDS011;9019;48.132;-1.210;2022-10-19T02:38:54;8.93;;;6.70;;
17790;SDS011;9019;48.132;-1.210;2022-10-19T02:41:22;9.88;;;6.85;;
17790;SDS011;9019;48.132;-1.210;2022-10-19T02:43:51;11.82;;;7.03;;
17790;SDS011;9019;48.132;-1.210;2022-10-19T02:46:21;7.57;;;6.43;;
17790;SDS011;9019;48.132;-1.210;2022-10-19T02:48:49;12.35;;;6.78;;
17790;SDS011;9019;48.132;-1.210;2022-10-19T02:51:27;10.07;;;6.78;;
17790;SDS011;9019;48.132;-1.210;2022-10-19T02:53:56;13.70;;;7.00;;
17790;SDS011;9019;48.132;-1.210;2022-10-19T02:56:23;10.68;;;6.68;;
17790;SDS011;9019;48.132;-1.210;2022-10-19T02:58:50;9.82;;;6.32;;
17790;SDS011;9019;48.132;-1.210;2022-10-19T03:01:18;8.88;;;6.82;;
17790;SDS011;9019;48.132;-1.210;2022-10-19T03:03:45;10.00;;;6.20;;
17790;SDS011;9019;48.132;-1.210;2022-10-19T03:06:13;10.88;;;6.75;;
17790;SDS011;9019;48.132;-1.210;2022-10-19T03:08:40;8.10;;;6.50;;
17790;SDS011;9019;48.132;-1.210;2022-10-19T03:11:09;11.02;;;6.75;;
17790;SDS011;9019;48.132;-1.210;2022-10-19T03:13:36;11.50;;;6.55;;
17790;SDS011;9019;48.132;-1.210;2022-10-19T03:16:07;10.30;;;7.00;;
17790;SDS011;9019;48.132;-1.210;2022-10-19T03:18:34;11.85;;;6.50;;
17790;SDS011;9019;48.132;-1.210;2022-10-19T03:21:02;10.07;;;6.93;;
17790;SDS011;9019;48.132;-1.210;2022-10-19T03:23:30;13.45;;;7.80;;
17790;SDS011;9019;48.132;-1.210;2022-10-19T03:25:57;10.85;;;7.03;;
17790;SDS011;9019;48.132;-1.210;2022-10-19T03:28:25;11.52;;;7.50;;
17790;SDS011;9019;48.132;-1.210;2022-10-19T03:30:53;10.13;;;7.15;;
17790;SDS011;9019;48.132;-1.210;2022-10-19T03:33:20;10.98;;;7.30;;
17790;SDS011;9019;48.132;-1.210;2022-10-19T03:35:47;10.57;;;7.40;;
17790;SDS011;9019;48.132;-1.210;2022-10-19T03:38:14;11.25;;;7.32;;
17790;SDS011;9019;48.132;-1.210;2022-10-19T03:40:42;12.38;;;7.00;;
17790;SDS011;9019;48.132;-1.210;2022-10-19T03:43:09;11.40;;;6.97;;
17790;SDS011;9019;48.132;-1.210;2022-10-19T03:45:37;9.57;;;6.95;;
17790;SDS011;9019;48.132;-1.210;2022-10-19T03:48:05;8.82;;;6.90;;
17790;SDS011;9019;48.132;-1.210;2022-10-19T03:50:32;8.93;;;6.50;;
17790;SDS011;9019;48.132;-1.210;2022-10-19T03:52:59;9.63;;;6.55;;
17790;SDS011;9019;48.132;-1.210;2022-10-19T03:55:26;14.63;;;6.93;;
17790;SDS011;9019;48.132;-1.210;2022-10-19T03:57:54;9.88;;;6.88;;
17790;SDS011;9019;48.132;-1.210;2022-10-19T04:00:21;9.82;;;7.05;;
17790;SDS011;9019;48.132;-1.210;2022-10-19T04:02:49;13.48;;;7.18;;
17790;SDS011;9019;48.132;-1.210;2022-10-19T04:05:16;10.25;;;6.90;;
17790;SDS011;9019;48.132;-1.210;2022-10-19T04:07:44;12.38;;;7.30;;
17790;SDS011;9019;48.132;-1.210;2022-10-19T04:10:11;12.82;;;7.15;;
17790;SDS011;9019;48.132;-1.210;2022-10-19T04:12:38;10.80;;;7.18;;
17790;SDS011;9019;48.132;-1.210;2022-10-19T04:15:06;8.05;;;6.88;;
17790;SDS011;9019;48.132;-1.210;2022-10-19T04:17:33;14.55;;;6.95;;
17790;SDS011;9019;48.132;-1.210;2022-10-19T04:20:02;12.00;;;7.38;;
17790;SDS011;9019;48.132;-1.210;2022-10-19T04:22:29;10.02;;;7.05;;
17790;SDS011;9019;48.132;-1.210;2022-10-19T04:24:56;9.75;;;6.97;;
17790;SDS011;9019;48.132;-1.210;2022-10-19T04:27:23;11.13;;;7.88;;
17790;SDS011;9019;48.132;-1.210;2022-10-19T04:29:51;9.68;;;7.38;;
17790;SDS011;9019;48.132;-1.210;2022-10-19T04:32:18;12.57;;;7.78;;
17790;SDS011;9019;48.132;-1.210;2022-10-19T04:34:45;11.32;;;7.30;;
17790;SDS011;9019;48.132;-1.210;2022-10-19T04:37:13;11.90;;;7.88;;
17790;SDS011;9019;48.132;-1.210;2022-10-19T04:39:41;10.52;;;7.70;;
17790;SDS011;9019;48.132;-1.210;2022-10-19T04:42:08;15.25;;;7.30;;
17790;SDS011;9019;48.132;-1.210;2022-10-19T04:44:36;7.93;;;7.07;;
17790;SDS011;9019;48.132;-1.210;2022-10-19T04:47:03;10.25;;;7.35;;
17790;SDS011;9019;48.132;-1.210;2022-10-19T04:49:30;9.98;;;7.32;;
17790;SDS011;9019;48.132;-1.210;2022-10-19T04:51:58;9.65;;;7.10;;
17790;SDS011;9019;48.132;-1.210;2022-10-19T04:54:26;13.23;;;7.20;;
17790;SDS011;9019;48.132;-1.210;2022-10-19T04:56:53;11.23;;;7.75;;
17790;SDS011;9019;48.132;-1.210;2022-10-19T04:59:20;10.00;;;7.55;;
17790;SDS011;9019;48.132;-1.210;2022-10-19T05:01:48;16.83;;;7.25;;
17790;SDS011;9019;48.132;-1.210;2022-10-19T05:04:15;15.68;;;8.18;;
17790;SDS011;9019;48.132;-1.210;2022-10-19T05:06:42;9.30;;;7.28;;
17790;SDS011;9019;48.132;-1.210;2022-10-19T05:09:09;15.38;;;7.55;;
17790;SDS011;9019;48.132;-1.210;2022-10-19T05:11:38;11.05;;;7.90;;
17790;SDS011;9019;48.132;-1.210;2022-10-19T05:14:06;11.98;;;7.75;;
17790;SDS011;9019;48.132;-1.210;2022-10-19T05:16:33;10.93;;;7.40;;
17790;SDS011;9019;48.132;-1.210;2022-10-19T05:19:00;11.00;;;7.80;;
17790;SDS011;9019;48.132;-1.210;2022-10-19T05:21:27;10.77;;;7.53;;
17790;SDS011;9019;48.132;-1.210;2022-10-19T05:23:55;11.40;;;7.78;;
17790;SDS011;9019;48.132;-1.210;2022-10-19T05:26:23;12.80;;;7.75;;
17790;SDS011;9019;48.132;-1.210;2022-10-19T05:28:52;11.43;;;7.32;;
17790;SDS011;9019;48.132;-1.210;2022-10-19T05:31:21;16.27;;;8.10;;
17790;SDS011;9019;48.132;-1.210;2022-10-19T05:33:49;12.70;;;7.90;;
17790;SDS011;9019;48.132;-1.210;2022-10-19T05:36:16;12.73;;;8.07;;
17790;SDS011;9019;48.132;-1.210;2022-10-19T05:38:44;10.70;;;7.55;;
17790;SDS011;9019;48.132;-1.210;2022-10-19T05:41:12;14.20;;;7.80;;
17790;SDS011;9019;48.132;-1.210;2022-10-19T05:43:39;12.70;;;7.75;;
17790;SDS011;9019;48.132;-1.210;2022-10-19T05:46:23;12.52;;;7.72;;
17790;SDS011;9019;48.132;-1.210;2022-10-19T05:48:51;12.18;;;7.60;;
17790;SDS011;9019;48.132;-1.210;2022-10-19T05:51:19;12.20;;;7.17;;
17790;SDS011;9019;48.132;-1.210;2022-10-19T05:53:46;13.38;;;7.43;;
17790;SDS011;9019;48.132;-1.210;2022-10-19T05:56:14;9.32;;;7.28;;
17790;SDS011;9019;48.132;-1.210;2022-10-19T05:58:41;10.68;;;7.72;;
17790;SDS011;9019;48.132;-1.210;2022-10-19T06:01:09;10.82;;;7.80;;
17790;SDS011;9019;48.132;-1.210;2022-10-19T06:03:38;12.65;;;7.85;;
17790;SDS011;9019;48.132;-1.210;2022-10-19T06:06:06;10.35;;;7.25;;
17790;SDS011;9019;48.132;-1.210;2022-10-19T06:08:33;10.88;;;7.28;;
17790;SDS011;9019;48.132;-1.210;2022-10-19T06:11:04;8.93;;;7.90;;
17790;SDS011;9019;48.132;-1.210;2022-10-19T06:13:32;10.27;;;7.13;;
17790;SDS011;9019;48.132;-1.210;2022-10-19T06:15:59;13.75;;;8.30;;
17790;SDS011;9019;48.132;-1.210;2022-10-19T06:18:26;12.25;;;8.20;;
17790;SDS011;9019;48.132;-1.210;2022-10-19T06:20:55;12.85;;;7.38;;
17790;SDS011;9019;48.132;-1.210;2022-10-19T06:23:27;14.63;;;7.55;;
17790;SDS011;9019;48.132;-1.210;2022-10-19T06:25:54;9.65;;;7.30;;
17790;SDS011;9019;48.132;-1.210;2022-10-19T06:28:21;11.93;;;7.78;;
17790;SDS011;9019;48.132;-1.210;2022-10-19T06:30:48;11.23;;;7.82;;
17790;SDS011;9019;48.132;-1.210;2022-10-19T06:33:15;15.30;;;7.75;;
17790;SDS011;9019;48.132;-1.210;2022-10-19T06:35:42;10.75;;;7.78;;
17790;SDS011;9019;48.132;-1.210;2022-10-19T06:38:11;11.05;;;7.40;;
17790;SDS011;9019;48.132;-1.210;2022-10-19T06:40:38;10.02;;;7.22;;
17790;SDS011;9019;48.132;-1.210;2022-10-19T06:43:06;10.98;;;7.65;;
17790;SDS011;9019;48.132;-1.210;2022-10-19T06:45:33;10.05;;;7.22;;
17790;SDS011;9019;48.132;-1.210;2022-10-19T06:48:03;14.40;;;7.85;;
17790;SDS011;9019;48.132;-1.210;2022-10-19T06:50:30;12.50;;;7.60;;
17790;SDS011;9019;48.132;-1.210;2022-10-19T06:52:57;12.48;;;7.55;;
17790;SDS011;9019;48.132;-1.210;2022-10-19T06:55:25;13.13;;;7.15;;
17790;SDS011;9019;48.132;-1.210;2022-10-19T06:57:53;11.18;;;7.40;;
17790;SDS011;9019;48.132;-1.210;2022-10-19T07:00:20;12.90;;;7.68;;
17790;SDS011;9019;48.132;-1.210;2022-10-19T07:02:47;11.23;;;7.70;;
17790;SDS011;9019;48.132;-1.210;2022-10-19T07:05:14;12.55;;;7.32;;
17790;SDS011;9019;48.132;-1.210;2022-10-19T07:07:41;10.98;;;7.00;;
17790;SDS011;9019;48.132;-1.210;2022-10-19T07:10:09;11.80;;;7.25;;
17790;SDS011;9019;48.132;-1.210;2022-10-19T07:12:38;10.60;;;6.78;;
17790;SDS011;9019;48.132;-1.210;2022-10-19T07:15:05;10.57;;;7.25;;
17790;SDS011;9019;48.132;-1.210;2022-10-19T07:17:33;10.07;;;7.30;;
17790;SDS011;9019;48.132;-1.210;2022-10-19T07:20:00;10.95;;;7.05;;
17790;SDS011;9019;48.132;-1.210;2022-10-19T07:22:27;8.43;;;6.35;;
17790;SDS011;9019;48.132;-1.210;2022-10-19T07:24:54;8.90;;;6.28;;
17790;SDS011;9019;48.132;-1.210;2022-10-19T07:27:22;11.45;;;6.55;;
17790;SDS011;9019;48.132;-1.210;2022-10-19T07:29:50;9.82;;;6.20;;
17790;SDS011;9019;48.132;-1.210;2022-10-19T07:32:18;10.15;;;6.07;;
17790;SDS011;9019;48.132;-1.210;2022-10-19T07:34:45;11.23;;;6.40;;
17790;SDS011;9019;48.132;-1.210;2022-10-19T07:37:12;7.65;;;5.43;;
17790;SDS011;9019;48.132;-1.210;2022-10-19T07:39:39;9.48;;;5.75;;
17790;SDS011;9019;48.132;-1.210;2022-10-19T07:42:06;10.05;;;5.90;;
17790;SDS011;9019;48.132;-1.210;2022-10-19T07:44:33;10.23;;;5.65;;
17790;SDS011;9019;48.132;-1.210;2022-10-19T07:47:02;9.52;;;5.57;;
17790;SDS011;9019;48.132;-1.210;2022-10-19T07:49:30;10.02;;;5.53;;
17790;SDS011;9019;48.132;-1.210;2022-10-19T07:51:57;10.57;;;5.80;;
17790;SDS011;9019;48.132;-1.210;2022-10-19T07:54:24;12.80;;;5.97;;
17790;SDS011;9019;48.132;-1.210;2022-10-19T07:56:51;9.73;;;5.88;;
17790;SDS011;9019;48.132;-1.210;2022-10-19T07:59:18;8.57;;;5.50;;
17790;SDS011;9019;48.132;-1.210;2022-10-19T08:01:46;8.43;;;5.35;;
17790;SDS011;9019;48.132;-1.210;2022-10-19T08:04:15;7.38;;;5.47;;
17790;SDS011;9019;48.132;-1.210;2022-10-19T08:06:43;11.23;;;5.18;;
17790;SDS011;9019;48.132;-1.210;2022-10-19T08:09:10;8.07;;;5.50;;
17790;SDS011;9019;48.132;-1.210;2022-10-19T08:11:37;7.72;;;4.97;;
17790;SDS011;9019;48.132;-1.210;2022-10-19T08:14:04;7.35;;;5.72;;
17790;SDS011;9019;48.132;-1.210;2022-10-19T08:16:32;10.40;;;5.53;;
17790;SDS011;9019;48.132;-1.210;2022-10-19T08:19:02;7.88;;;5.15;;
17790;SDS011;9019;48.132;-1.210;2022-10-19T08:21:33;8.25;;;5.32;;
17790;SDS011;9019;48.132;-1.210;2022-10-19T08:24:00;7.85;;;5.57;;
17790;SDS011;9019;48.132;-1.210;2022-10-19T08:26:28;10.55;;;5.75;;
17790;SDS011;9019;48.132;-1.210;2022-10-19T08:28:58;9.77;;;6.20;;
17790;SDS011;9019;48.132;-1.210;2022-10-19T08:31:25;10.23;;;5.85;;
17790;SDS011;9019;48.132;-1.210;2022-10-19T08:33:53;8.88;;;5.68;;
17790;SDS011;9019;48.132;-1.210;2022-10-19T08:36:20;8.43;;;5.40;;
17790;SDS011;9019;48.132;-1.210;2022-10-19T08:38:49;10.05;;;5.15;;
17790;SDS011;9019;48.132;-1.210;2022-10-19T08:41:20;7.63;;;5.50;;
17790;SDS011;9019;48.132;-1.210;2022-10-19T08:44:06;7.53;;;5.28;;
17790;SDS011;9019;48.132;-1.210;2022-10-19T08:46:40;7.72;;;4.45;;
17790;SDS011;9019;48.132;-1.210;2022-10-19T08:49:11;7.28;;;4.70;;
17790;SDS011;9019;48.132;-1.210;2022-10-19T08:51:41;8.38;;;4.82;;
17790;SDS011;9019;48.132;-1.210;2022-10-19T08:54:13;7.32;;;4.90;;
17790;SDS011;9019;48.132;-1.210;2022-10-19T08:56:43;10.18;;;4.30;;
17790;SDS011;9019;48.132;-1.210;2022-10-19T08:59:15;8.85;;;4.65;;
17790;SDS011;9019;48.132;-1.210;2022-10-19T09:01:48;10.02;;;4.82;;
17790;SDS011;9019;48.132;-1.210;2022-10-19T09:04:18;13.85;;;4.47;;
17790;SDS011;9019;48.132;-1.210;2022-10-19T09:06:51;7.43;;;4.70;;
17790;SDS011;9019;48.132;-1.210;2022-10-19T09:09:23;9.27;;;5.03;;
17790;SDS011;9019;48.132;-1.210;2022-10-19T09:11:52;10.70;;;4.75;;
17790;SDS011;9019;48.132;-1.210;2022-10-19T09:14:22;6.75;;;4.53;;
17790;SDS011;9019;48.132;-1.210;2022-10-19T09:16:51;9.43;;;4.10;;
17790;SDS011;9019;48.132;-1.210;2022-10-19T09:19:20;4.50;;;3.63;;
17790;SDS011;9019;48.132;-1.210;2022-10-19T09:21:50;7.03;;;4.20;;
17790;SDS011;9019;48.132;-1.210;2022-10-19T09:24:31;6.97;;;4.15;;
17790;SDS011;9019;48.132;-1.210;2022-10-19T09:27:00;5.35;;;3.78;;
17790;SDS011;9019;48.132;-1.210;2022-10-19T09:29:30;5.45;;;3.63;;
17790;SDS011;9019;48.132;-1.210;2022-10-19T09:32:00;6.18;;;3.50;;
17790;SDS011;9019;48.132;-1.210;2022-10-19T09:34:30;8.15;;;3.90;;
17790;SDS011;9019;48.132;-1.210;2022-10-19T09:36:59;6.10;;;4.25;;
17790;SDS011;9019;48.132;-1.210;2022-10-19T09:39:27;7.82;;;3.58;;
17790;SDS011;9019;48.132;-1.210;2022-10-19T09:41:56;9.27;;;4.20;;
17790;SDS011;9019;48.132;-1.210;2022-10-19T09:44:25;8.25;;;3.55;;
17790;SDS011;9019;48.132;-1.210;2022-10-19T09:46:54;10.40;;;4.10;;
17790;SDS011;9019;48.132;-1.210;2022-10-19T09:49:37;7.93;;;3.40;;
17790;SDS011;9019;48.132;-1.210;2022-10-19T09:52:04;9.93;;;3.75;;
17790;SDS011;9019;48.132;-1.210;2022-10-19T09:54:32;7.60;;;3.83;;
17790;SDS011;9019;48.132;-1.210;2022-10-19T09:57:02;7.50;;;3.85;;
17790;SDS011;9019;48.132;-1.210;2022-10-19T09:59:32;7.72;;;3.65;;
17790;SDS011;9019;48.132;-1.210;2022-10-19T10:02:03;8.65;;;4.15;;
17790;SDS011;9019;48.132;-1.210;2022-10-19T10:04:30;8.00;;;3.60;;
17790;SDS011;9019;48.132;-1.210;2022-10-19T10:07:00;6.38;;;3.67;;
17790;SDS011;9019;48.132;-1.210;2022-10-19T10:09:29;9.07;;;3.65;;
17790;SDS011;9019;48.132;-1.210;2022-10-19T10:11:57;7.90;;;3.75;;
17790;SDS011;9019;48.132;-1.210;2022-10-19T10:14:28;10.52;;;4.07;;
17790;SDS011;9019;48.132;-1.210;2022-10-19T10:16:56;8.13;;;4.25;;
17790;SDS011;9019;48.132;-1.210;2022-10-19T10:19:25;5.68;;;3.65;;
17790;SDS011;9019;48.132;-1.210;2022-10-19T10:21:54;6.30;;;3.50;;
17790;SDS011;9019;48.132;-1.210;2022-10-19T10:24:23;6.85;;;3.55;;
17790;SDS011;9019;48.132;-1.210;2022-10-19T10:26:51;7.43;;;3.70;;
17790;SDS011;9019;48.132;-1.210;2022-10-19T10:29:19;7.43;;;3.67;;
17790;SDS011;9019;48.132;-1.210;2022-10-19T10:31:48;6.80;;;3.70;;
17790;SDS011;9019;48.132;-1.210;2022-10-19T10:34:18;7.80;;;3.83;;
17790;SDS011;9019;48.132;-1.210;2022-10-19T10:36:49;7.03;;;3.55;;
17790;SDS011;9019;48.132;-1.210;2022-10-19T10:39:17;5.15;;;3.20;;
17790;SDS011;9019;48.132;-1.210;2022-10-19T10:41:44;6.28;;;3.10;;
17790;SDS011;9019;48.132;-1.210;2022-10-19T10:44:15;4.80;;;3.28;;
17790;SDS011;9019;48.132;-1.210;2022-10-19T10:46:45;7.60;;;3.47;;
17790;SDS011;9019;48.132;-1.210;2022-10-19T10:49:18;8.93;;;3.35;;
17790;SDS011;9019;48.132;-1.210;2022-10-19T10:51:46;9.13;;;3.42;;
17790;SDS011;9019;48.132;-1.210;2022-10-19T10:54:16;6.80;;;3.40;;
17790;SDS011;9019;48.132;-1.210;2022-10-19T10:56:53;8.65;;;3.20;;
17790;SDS011;9019;48.132;-1.210;2022-10-19T10:59:22;7.57;;;3.45;;
17790;SDS011;9019;48.132;-1.210;2022-10-19T11:01:52;8.27;;;3.95;;
17790;SDS011;9019;48.132;-1.210;2022-10-19T11:04:25;9.25;;;4.13;;
17790;SDS011;9019;48.132;-1.210;2022-10-19T11:06:55;7.53;;;3.47;;
17790;SDS011;9019;48.132;-1.210;2022-10-19T11:09:24;7.65;;;3.72;;
17790;SDS011;9019;48.132;-1.210;2022-10-19T11:11:54;11.05;;;4.13;;
17790;SDS011;9019;48.132;-1.210;2022-10-19T11:14:29;6.47;;;3.67;;
17790;SDS011;9019;48.132;-1.210;2022-10-19T11:16:57;6.28;;;3.55;;
17790;SDS011;9019;48.132;-1.210;2022-10-19T11:19:28;11.73;;;3.80;;
17790;SDS011;9019;48.132;-1.210;2022-10-19T11:22:00;9.60;;;3.78;;
17790;SDS011;9019;48.132;-1.210;2022-10-19T11:24:31;5.30;;;3.20;;
17790;SDS011;9019;48.132;-1.210;2022-10-19T11:27:04;8.85;;;3.35;;
17790;SDS011;9019;48.132;-1.210;2022-10-19T11:29:40;9.63;;;3.38;;
17790;SDS011;9019;48.132;-1.210;2022-10-19T11:32:13;8.85;;;3.40;;
17790;SDS011;9019;48.132;-1.210;2022-10-19T11:34:48;7.93;;;3.50;;
17790;SDS011;9019;48.132;-1.210;2022-10-19T11:37:22;9.07;;;3.30;;
17790;SDS011;9019;48.132;-1.210;2022-10-19T11:39:55;6.40;;;3.25;;
17790;SDS011;9019;48.132;-1.210;2022-10-19T11:42:27;7.20;;;3.30;;
17790;SDS011;9019;48.132;-1.210;2022-10-19T11:45:02;7.50;;;3.60;;
17790;SDS011;9019;48.132;-1.210;2022-10-19T11:47:38;7.50;;;3.63;;
17790;SDS011;9019;48.132;-1.210;2022-10-19T11:50:19;8.38;;;4.03;;
17790;SDS011;9019;48.132;-1.210;2022-10-19T11:52:48;11.00;;;4.20;;
17790;SDS011;9019;48.132;-1.210;2022-10-19T11:55:19;7.60;;;3.95;;
17790;SDS011;9019;48.132;-1.210;2022-10-19T11:57:50;8.10;;;4.07;;
17790;SDS011;9019;48.132;-1.210;2022-10-19T12:00:20;9.20;;;3.90;;
17790;SDS011;9019;48.132;-1.210;2022-10-19T12:03:07;6.10;;;3.60;;
17790;SDS011;9019;48.132;-1.210;2022-10-19T12:05:39;12.32;;;4.05;;
17790;SDS011;9019;48.132;-1.210;2022-10-19T12:08:12;7.55;;;3.67;;
17790;SDS011;9019;48.132;-1.210;2022-10-19T12:10:43;6.22;;;3.72;;
17790;SDS011;9019;48.132;-1.210;2022-10-19T12:13:14;9.38;;;3.60;;
17790;SDS011;9019;48.132;-1.210;2022-10-19T12:15:43;11.23;;;3.75;;
17790;SDS011;9019;48.132;-1.210;2022-10-19T12:18:13;10.25;;;3.72;;
17790;SDS011;9019;48.132;-1.210;2022-10-19T12:20:45;8.77;;;4.00;;
17790;SDS011;9019;48.132;-1.210;2022-10-19T12:23:17;5.40;;;3.58;;
17790;SDS011;9019;48.132;-1.210;2022-10-19T12:25:46;7.45;;;3.50;;
17790;SDS011;9019;48.132;-1.210;2022-10-19T12:28:15;10.80;;;3.95;;
17790;SDS011;9019;48.132;-1.210;2022-10-19T12:30:45;5.97;;;3.83;;
17790;SDS011;9019;48.132;-1.210;2022-10-19T12:33:14;6.70;;;3.60;;
17790;SDS011;9019;48.132;-1.210;2022-10-19T12:35:49;9.15;;;3.45;;
17790;SDS011;9019;48.132;-1.210;2022-10-19T12:38:18;10.18;;;4.03;;
17790;SDS011;9019;48.132;-1.210;2022-10-19T12:40:49;9.95;;;3.78;;
17790;SDS011;9019;48.132;-1.210;2022-10-19T12:43:19;10.07;;;4.13;;
17790;SDS011;9019;48.132;-1.210;2022-10-19T12:45:53;11.10;;;3.60;;
17790;SDS011;9019;48.132;-1.210;2022-10-19T12:48:21;8.05;;;3.55;;
17790;SDS011;9019;48.132;-1.210;2022-10-19T12:50:57;8.82;;;3.80;;
17790;SDS011;9019;48.132;-1.210;2022-10-19T12:53:26;8.32;;;4.20;;
17790;SDS011;9019;48.132;-1.210;2022-10-19T12:55:58;7.93;;;3.90;;
17790;SDS011;9019;48.132;-1.210;2022-10-19T12:58:26;7.30;;;3.95;;
17790;SDS011;9019;48.132;-1.210;2022-10-19T13:00:57;10.27;;;3.83;;
17790;SDS011;9019;48.132;-1.210;2022-10-19T13:03:26;10.45;;;3.70;;
17790;SDS011;9019;48.132;-1.210;2022-10-19T13:05:55;11.23;;;4.18;;
17790;SDS011;9019;48.132;-1.210;2022-10-19T13:08:25;9.68;;;4.05;;
17790;SDS011;9019;48.132;-1.210;2022-10-19T13:11:01;7.72;;;3.45;;
17790;SDS011;9019;48.132;-1.210;2022-10-19T13:19:19;10.05;;;4.00;;
17790;SDS011;9019;48.132;-1.210;2022-10-19T13:21:50;10.60;;;4.13;;
17790;SDS011;9019;48.132;-1.210;2022-10-19T13:24:24;10.45;;;4.43;;
17790;SDS011;9019;48.132;-1.210;2022-10-19T13:29:38;8.45;;;4.22;;
17790;SDS011;9019;48.132;-1.210;2022-10-19T13:34:49;11.15;;;4.60;;
17790;SDS011;9019;48.132;-1.210;2022-10-19T13:37:16;10.43;;;4.18;;
17790;SDS011;9019;48.132;-1.210;2022-10-19T13:39:45;9.38;;;3.40;;
17790;SDS011;9019;48.132;-1.210;2022-10-19T13:42:21;11.23;;;3.92;;
17790;SDS011;9019;48.132;-1.210;2022-10-19T13:44:48;9.82;;;4.25;;
17790;SDS011;9019;48.132;-1.210;2022-10-19T13:47:22;8.30;;;3.95;;
17790;SDS011;9019;48.132;-1.210;2022-10-19T13:58:26;7.70;;;3.63;;
17790;SDS011;9019;48.132;-1.210;2022-10-19T14:01:00;6.75;;;3.55;;
17790;SDS011;9019;48.132;-1.210;2022-10-19T14:03:34;10.52;;;3.88;;
17790;SDS011;9019;48.132;-1.210;2022-10-19T14:06:10;10.30;;;3.65;;
17790;SDS011;9019;48.132;-1.210;2022-10-19T14:08:42;11.25;;;3.80;;
17790;SDS011;9019;48.132;-1.210;2022-10-19T14:11:13;6.72;;;3.65;;
17790;SDS011;9019;48.132;-1.210;2022-10-19T14:13:42;8.30;;;3.55;;
17790;SDS011;9019;48.132;-1.210;2022-10-19T14:16:16;10.10;;;3.83;;
17790;SDS011;9019;48.132;-1.210;2022-10-19T14:18:51;10.98;;;4.18;;
17790;SDS011;9019;48.132;-1.210;2022-10-19T14:21:27;10.88;;;3.97;;
17790;SDS011;9019;48.132;-1.210;2022-10-19T14:23:55;10.15;;;4.38;;
17790;SDS011;9019;48.132;-1.210;2022-10-19T14:26:24;7.70;;;3.92;;
17790;SDS011;9019;48.132;-1.210;2022-10-19T14:28:55;9.77;;;4.63;;
17790;SDS011;9019;48.132;-1.210;2022-10-19T14:31:24;8.00;;;4.30;;
17790;SDS011;9019;48.132;-1.210;2022-10-19T14:33:57;11.07;;;4.70;;
17790;SDS011;9019;48.132;-1.210;2022-10-19T14:36:27;9.70;;;4.18;;
17790;SDS011;9019;48.132;-1.210;2022-10-19T14:38:57;9.30;;;4.55;;
17790;SDS011;9019;48.132;-1.210;2022-10-19T14:41:28;9.40;;;4.20;;
17790;SDS011;9019;48.132;-1.210;2022-10-19T14:43:57;10.15;;;4.28;;
17790;SDS011;9019;48.132;-1.210;2022-10-19T14:46:25;10.43;;;4.13;;
17790;SDS011;9019;48.132;-1.210;2022-10-19T14:48:56;7.57;;;3.75;;
17790;SDS011;9019;48.132;-1.210;2022-10-19T14:51:28;11.40;;;3.72;;
17790;SDS011;9019;48.132;-1.210;2022-10-19T14:53:59;11.23;;;4.30;;
17790;SDS011;9019;48.132;-1.210;2022-10-19T14:56:31;7.55;;;3.72;;
17790;SDS011;9019;48.132;-1.210;2022-10-19T14:59:01;10.48;;;3.75;;
17790;SDS011;9019;48.132;-1.210;2022-10-19T15:01:29;12.75;;;3.92;;
17790;SDS011;9019;48.132;-1.210;2022-10-19T15:03:56;9.43;;;3.90;;
17790;SDS011;9019;48.132;-1.210;2022-10-19T15:06:24;12.65;;;3.90;;
17790;SDS011;9019;48.132;-1.210;2022-10-19T15:08:53;14.13;;;4.05;;
17790;SDS011;9019;48.132;-1.210;2022-10-19T15:11:23;11.90;;;3.85;;
17790;SDS011;9019;48.132;-1.210;2022-10-19T15:13:54;10.82;;;4.22;;
17790;SDS011;9019;48.132;-1.210;2022-10-19T15:16:29;8.80;;;3.58;;